sensor_id;sensor_type;location;lat;lon;timestamp;P1;durP1;ratioP1;P2;durP2;ratioP2
61675;SDS011;47574;52.090;5.244;2023-03-07T00:00:29;12.6;;;9.1;;
61675;SDS011;47574;52.090;5.244;2023-03-07T00:02:05;12.7;;;7.7;;
61675;SDS011;47574;52.090;5.244;2023-03-07T00:03:41;11.1;;;7.7;;
61675;SDS011;47574;52.090;5.244;2023-03-07T00:05:17;9.71;;;7.2;;
61675;SDS011;47574;52.090;5.244;2023-03-07T00:08:30;11.3;;;7.2;;
61675;SDS011;47574;52.090;5.244;2023-03-07T00:10:08;11.7;;;7.1;;
61675;SDS011;47574;52.090;5.244;2023-03-07T00:11:45;13.5;;;6.5;;
61675;SDS011;47574;52.090;5.244;2023-03-07T00:14:57;11.8;;;5.9;;
61675;SDS011;47574;52.090;5.244;2023-03-07T00:16:33;12.7;;;6.1;;
61675;SDS011;47574;52.090;5.244;2023-03-07T00:18:09;11.5;;;6.0;;
61675;SDS011;47574;52.090;5.244;2023-03-07T00:21:22;10.0;;;5.9;;
61675;SDS011;47574;52.090;5.244;2023-03-07T00:22:58;10.4;;;5.4;;
61675;SDS011;47574;52.090;5.244;2023-03-07T00:24:34;12.1;;;5.4;;
61675;SDS011;47574;52.090;5.244;2023-03-07T00:26:11;10.21;;;5.4;;
61675;SDS011;47574;52.090;5.244;2023-03-07T00:29:25;12.6;;;5.9;;
61675;SDS011;47574;52.090;5.244;2023-03-07T00:31:03;10.4;;;5.5;;
61675;SDS011;47574;52.090;5.244;2023-03-07T00:32:41;11.2;;;5.11;;
61675;SDS011;47574;52.090;5.244;2023-03-07T00:35:53;11.3;;;5.5;;
61675;SDS011;47574;52.090;5.244;2023-03-07T00:37:31;11.9;;;6.0;;
61675;SDS011;47574;52.090;5.244;2023-03-07T00:39:07;13.3;;;6.0;;
61675;SDS011;47574;52.090;5.244;2023-03-07T00:42:19;9.9;;;5.7;;
61675;SDS011;47574;52.090;5.244;2023-03-07T00:43:56;10.0;;;5.2;;
61675;SDS011;47574;52.090;5.244;2023-03-07T00:45:32;14.1;;;5.7;;
61675;SDS011;47574;52.090;5.244;2023-03-07T00:47:08;11.7;;;6.1;;
61675;SDS011;47574;52.090;5.244;2023-03-07T00:50:21;15.2;;;5.6;;
61675;SDS011;47574;52.090;5.244;2023-03-07T00:51:58;10.3;;;5.7;;
61675;SDS011;47574;52.090;5.244;2023-03-07T00:53:35;11.4;;;6.1;;
61675;SDS011;47574;52.090;5.244;2023-03-07T00:56:48;9.6;;;5.2;;
61675;SDS011;47574;52.090;5.244;2023-03-07T00:58:24;9.81;;;5.4;;
61675;SDS011;47574;52.090;5.244;2023-03-07T01:00:01;12.9;;;6.3;;
61675;SDS011;47574;52.090;5.244;2023-03-07T01:03:15;11.0;;;5.8;;
61675;SDS011;47574;52.090;5.244;2023-03-07T01:04:52;12.0;;;5.9;;
61675;SDS011;47574;52.090;5.244;2023-03-07T01:06:29;12.1;;;6.2;;
61675;SDS011;47574;52.090;5.244;2023-03-07T01:08:08;11.1;;;5.9;;
61675;SDS011;47574;52.090;5.244;2023-03-07T01:11:20;9.5;;;5.9;;
61675;SDS011;47574;52.090;5.244;2023-03-07T01:12:56;12.7;;;5.5;;
61675;SDS011;47574;52.090;5.244;2023-03-07T01:14:32;10.4;;;5.9;;
61675;SDS011;47574;52.090;5.244;2023-03-07T01:17:49;11.0;;;6.0;;
61675;SDS011;47574;52.090;5.244;2023-03-07T01:19:25;9.6;;;6.4;;
61675;SDS011;47574;52.090;5.244;2023-03-07T01:21:01;13.1;;;6.4;;
61675;SDS011;47574;52.090;5.244;2023-03-07T01:22:45;13.1;;;6.2;;
61675;SDS011;47574;52.090;5.244;2023-03-07T01:25:57;10.5;;;4.91;;
61675;SDS011;47574;52.090;5.244;2023-03-07T01:27:34;7.6;;;4.1;;
61675;SDS011;47574;52.090;5.244;2023-03-07T01:29:10;9.4;;;3.6;;
61675;SDS011;47574;52.090;5.244;2023-03-07T01:32:32;11.8;;;4.61;;
61675;SDS011;47574;52.090;5.244;2023-03-07T01:34:08;10.0;;;3.8;;
61675;SDS011;47574;52.090;5.244;2023-03-07T01:35:44;11.2;;;3.4;;
61675;SDS011;47574;52.090;5.244;2023-03-07T01:37:20;11.1;;;3.6;;
61675;SDS011;47574;52.090;5.244;2023-03-07T01:40:35;10.9;;;4.0;;
61675;SDS011;47574;52.090;5.244;2023-03-07T01:42:13;10.1;;;4.1;;
61675;SDS011;47574;52.090;5.244;2023-03-07T01:43:49;10.3;;;3.7;;
61675;SDS011;47574;52.090;5.244;2023-03-07T01:48:18;10.4;;;3.7;;
61675;SDS011;47574;52.090;5.244;2023-03-07T01:49:54;9.4;;;3.5;;
61675;SDS011;47574;52.090;5.244;2023-03-07T01:53:13;10.7;;;3.8;;
61675;SDS011;47574;52.090;5.244;2023-03-07T01:54:51;8.6;;;3.5;;
61675;SDS011;47574;52.090;5.244;2023-03-07T01:56:30;11.4;;;3.3;;
61675;SDS011;47574;52.090;5.244;2023-03-07T01:59:47;7.5;;;3.3;;
61675;SDS011;47574;52.090;5.244;2023-03-07T02:01:26;8.0;;;3.7;;
61675;SDS011;47574;52.090;5.244;2023-03-07T02:03:04;8.4;;;3.5;;
61675;SDS011;47574;52.090;5.244;2023-03-07T02:04:47;8.81;;;3.3;;
61675;SDS011;47574;52.090;5.244;2023-03-07T02:08:08;8.6;;;3.5;;
61675;SDS011;47574;52.090;5.244;2023-03-07T02:09:48;10.0;;;3.0;;
61675;SDS011;47574;52.090;5.244;2023-03-07T02:13:04;11.2;;;3.6;;
61675;SDS011;47574;52.090;5.244;2023-03-07T02:16:20;7.3;;;3.1;;
61675;SDS011;47574;52.090;5.244;2023-03-07T02:17:56;8.71;;;3.2;;
61675;SDS011;47574;52.090;5.244;2023-03-07T02:19:38;11.5;;;3.2;;
61675;SDS011;47574;52.090;5.244;2023-03-07T02:21:29;14.1;;;3.9;;
61675;SDS011;47574;52.090;5.244;2023-03-07T02:25:01;12.1;;;3.4;;
61675;SDS011;47574;52.090;5.244;2023-03-07T02:26:43;9.0;;;2.6;;
61675;SDS011;47574;52.090;5.244;2023-03-07T02:28:20;12.5;;;3.2;;
61675;SDS011;47574;52.090;5.244;2023-03-07T02:29:56;10.9;;;2.7;;
61675;SDS011;47574;52.090;5.244;2023-03-07T02:33:08;11.2;;;2.9;;
61675;SDS011;47574;52.090;5.244;2023-03-07T02:34:44;9.5;;;2.9;;
61675;SDS011;47574;52.090;5.244;2023-03-07T02:36:21;11.0;;;3.1;;
61675;SDS011;47574;52.090;5.244;2023-03-07T02:38:00;10.21;;;2.7;;
61675;SDS011;47574;52.090;5.244;2023-03-07T02:41:19;12.3;;;3.2;;
61675;SDS011;47574;52.090;5.244;2023-03-07T02:43:01;14.5;;;2.8;;
61675;SDS011;47574;52.090;5.244;2023-03-07T02:44:39;12.0;;;2.7;;
61675;SDS011;47574;52.090;5.244;2023-03-07T02:47:51;10.6;;;2.8;;
61675;SDS011;47574;52.090;5.244;2023-03-07T02:49:27;9.5;;;2.8;;
61675;SDS011;47574;52.090;5.244;2023-03-07T02:51:04;11.5;;;3.0;;
61675;SDS011;47574;52.090;5.244;2023-03-07T02:55:54;11.6;;;3.0;;
61675;SDS011;47574;52.090;5.244;2023-03-07T02:57:30;12.8;;;2.7;;
61675;SDS011;47574;52.090;5.244;2023-03-07T02:59:06;9.81;;;2.7;;
61675;SDS011;47574;52.090;5.244;2023-03-07T03:02:19;12.6;;;2.7;;
61675;SDS011;47574;52.090;5.244;2023-03-07T03:03:55;11.8;;;2.8;;
61675;SDS011;47574;52.090;5.244;2023-03-07T03:05:31;11.4;;;2.7;;
61675;SDS011;47574;52.090;5.244;2023-03-07T03:08:43;10.7;;;3.0;;
61675;SDS011;47574;52.090;5.244;2023-03-07T03:10:19;11.7;;;3.0;;
61675;SDS011;47574;52.090;5.244;2023-03-07T03:11:56;13.5;;;2.6;;
61675;SDS011;47574;52.090;5.244;2023-03-07T03:13:33;8.4;;;2.5;;
61675;SDS011;47574;52.090;5.244;2023-03-07T03:16:46;13.9;;;2.9;;
61675;SDS011;47574;52.090;5.244;2023-03-07T03:18:22;8.4;;;2.31;;
61675;SDS011;47574;52.090;5.244;2023-03-07T03:19:59;10.0;;;2.8;;
61675;SDS011;47574;52.090;5.244;2023-03-07T03:23:12;8.31;;;2.6;;
61675;SDS011;47574;52.090;5.244;2023-03-07T03:24:48;12.1;;;2.7;;
61675;SDS011;47574;52.090;5.244;2023-03-07T03:26:24;11.7;;;3.2;;
61675;SDS011;47574;52.090;5.244;2023-03-07T03:29:36;12.7;;;2.8;;
61675;SDS011;47574;52.090;5.244;2023-03-07T03:31:12;10.7;;;3.1;;
61675;SDS011;47574;52.090;5.244;2023-03-07T03:32:49;10.4;;;2.8;;
61675;SDS011;47574;52.090;5.244;2023-03-07T03:34:26;8.71;;;2.6;;
61675;SDS011;47574;52.090;5.244;2023-03-07T03:37:43;12.5;;;3.5;;
61675;SDS011;47574;52.090;5.244;2023-03-07T03:39:19;14.0;;;3.0;;
61675;SDS011;47574;52.090;5.244;2023-03-07T03:40:55;10.6;;;2.7;;
61675;SDS011;47574;52.090;5.244;2023-03-07T03:44:07;15.2;;;3.1;;
61675;SDS011;47574;52.090;5.244;2023-03-07T03:45:52;11.3;;;2.9;;
61675;SDS011;47574;52.090;5.244;2023-03-07T03:47:29;11.7;;;2.6;;
61675;SDS011;47574;52.090;5.244;2023-03-07T03:49:05;9.9;;;2.9;;
61675;SDS011;47574;52.090;5.244;2023-03-07T03:52:17;9.71;;;3.2;;
61675;SDS011;47574;52.090;5.244;2023-03-07T03:55:30;9.5;;;3.2;;
61675;SDS011;47574;52.090;5.244;2023-03-07T03:58:45;12.1;;;2.8;;
61675;SDS011;47574;52.090;5.244;2023-03-07T04:00:23;12.3;;;3.1;;
61675;SDS011;47574;52.090;5.244;2023-03-07T04:01:59;10.6;;;3.0;;
61675;SDS011;47574;52.090;5.244;2023-03-07T04:05:14;8.5;;;3.0;;
61675;SDS011;47574;52.090;5.244;2023-03-07T04:06:50;13.5;;;3.2;;
61675;SDS011;47574;52.090;5.244;2023-03-07T04:08:26;11.9;;;3.3;;
61675;SDS011;47574;52.090;5.244;2023-03-07T04:10:03;9.5;;;3.1;;
61675;SDS011;47574;52.090;5.244;2023-03-07T04:13:16;13.4;;;3.1;;
61675;SDS011;47574;52.090;5.244;2023-03-07T04:14:52;8.9;;;2.9;;
61675;SDS011;47574;52.090;5.244;2023-03-07T04:16:28;12.6;;;3.6;;
61675;SDS011;47574;52.090;5.244;2023-03-07T04:19:40;12.2;;;3.2;;
61675;SDS011;47574;52.090;5.244;2023-03-07T04:21:17;12.3;;;3.0;;
61675;SDS011;47574;52.090;5.244;2023-03-07T04:22:54;12.2;;;3.3;;
61675;SDS011;47574;52.090;5.244;2023-03-07T04:26:07;11.5;;;3.0;;
61675;SDS011;47574;52.090;5.244;2023-03-07T04:29:20;10.0;;;3.5;;
61675;SDS011;47574;52.090;5.244;2023-03-07T04:30:57;8.71;;;2.9;;
61675;SDS011;47574;52.090;5.244;2023-03-07T04:34:09;10.9;;;3.7;;
61675;SDS011;47574;52.090;5.244;2023-03-07T04:35:45;12.7;;;3.8;;
61675;SDS011;47574;52.090;5.244;2023-03-07T04:37:21;12.3;;;3.7;;
61675;SDS011;47574;52.090;5.244;2023-03-07T04:40:34;11.8;;;3.6;;
61675;SDS011;47574;52.090;5.244;2023-03-07T04:42:10;10.5;;;3.6;;
61675;SDS011;47574;52.090;5.244;2023-03-07T04:43:46;7.3;;;3.0;;
61675;SDS011;47574;52.090;5.244;2023-03-07T04:46:58;8.9;;;3.3;;
61675;SDS011;47574;52.090;5.244;2023-03-07T04:48:34;12.7;;;3.8;;
61675;SDS011;47574;52.090;5.244;2023-03-07T04:50:10;10.1;;;2.9;;
61675;SDS011;47574;52.090;5.244;2023-03-07T04:53:23;6.1;;;2.5;;
61675;SDS011;47574;52.090;5.244;2023-03-07T04:54:59;10.3;;;2.5;;
61675;SDS011;47574;52.090;5.244;2023-03-07T04:56:35;10.5;;;2.7;;
61675;SDS011;47574;52.090;5.244;2023-03-07T04:58:11;9.0;;;2.31;;
61675;SDS011;47574;52.090;5.244;2023-03-07T05:01:24;10.1;;;2.31;;
61675;SDS011;47574;52.090;5.244;2023-03-07T05:03:00;9.9;;;2.4;;
61675;SDS011;47574;52.090;5.244;2023-03-07T05:04:36;9.31;;;2.31;;
61675;SDS011;47574;52.090;5.244;2023-03-07T05:07:52;8.81;;;2.0;;
61675;SDS011;47574;52.090;5.244;2023-03-07T05:09:28;6.6;;;1.7;;
61675;SDS011;47574;52.090;5.244;2023-03-07T05:11:05;11.1;;;2.1;;
61675;SDS011;47574;52.090;5.244;2023-03-07T05:14:17;8.31;;;2.0;;
61675;SDS011;47574;52.090;5.244;2023-03-07T05:15:54;12.5;;;2.1;;
61675;SDS011;47574;52.090;5.244;2023-03-07T05:17:32;5.7;;;1.6;;
61675;SDS011;47574;52.090;5.244;2023-03-07T05:19:08;9.21;;;2.5;;
61675;SDS011;47574;52.090;5.244;2023-03-07T05:22:21;7.9;;;1.6;;
61675;SDS011;47574;52.090;5.244;2023-03-07T05:23:57;7.9;;;1.6;;
61675;SDS011;47574;52.090;5.244;2023-03-07T05:25:33;10.0;;;2.21;;
61675;SDS011;47574;52.090;5.244;2023-03-07T05:28:46;5.4;;;1.4;;
61675;SDS011;47574;52.090;5.244;2023-03-07T05:30:22;5.6;;;1.11;;
61675;SDS011;47574;52.090;5.244;2023-03-07T05:31:58;5.0;;;1.3;;
61675;SDS011;47574;52.090;5.244;2023-03-07T05:35:10;9.21;;;1.3;;
61675;SDS011;47574;52.090;5.244;2023-03-07T05:36:46;5.3;;;1.11;;
61675;SDS011;47574;52.090;5.244;2023-03-07T05:38:22;8.0;;;1.4;;
61675;SDS011;47574;52.090;5.244;2023-03-07T05:39:59;6.6;;;1.2;;
61675;SDS011;47574;52.090;5.244;2023-03-07T05:43:11;4.5;;;1.11;;
61675;SDS011;47574;52.090;5.244;2023-03-07T05:44:47;3.8;;;0.9;;
61675;SDS011;47574;52.090;5.244;2023-03-07T05:46:23;2.8;;;0.7;;
61675;SDS011;47574;52.090;5.244;2023-03-07T05:49:35;4.91;;;0.9;;
61675;SDS011;47574;52.090;5.244;2023-03-07T05:51:12;2.7;;;0.6;;
61675;SDS011;47574;52.090;5.244;2023-03-07T05:52:48;2.8;;;0.7;;
61675;SDS011;47574;52.090;5.244;2023-03-07T05:56:01;4.61;;;0.9;;
61675;SDS011;47574;52.090;5.244;2023-03-07T05:57:37;4.1;;;1.11;;
61675;SDS011;47574;52.090;5.244;2023-03-07T05:59:13;5.8;;;1.0;;
61675;SDS011;47574;52.090;5.244;2023-03-07T06:02:26;4.91;;;1.0;;
61675;SDS011;47574;52.090;5.244;2023-03-07T06:04:02;3.3;;;0.7;;
61675;SDS011;47574;52.090;5.244;2023-03-07T06:05:38;3.1;;;0.8;;
61675;SDS011;47574;52.090;5.244;2023-03-07T06:07:14;3.6;;;0.9;;
61675;SDS011;47574;52.090;5.244;2023-03-07T06:10:26;3.4;;;0.8;;
61675;SDS011;47574;52.090;5.244;2023-03-07T06:12:03;7.3;;;1.11;;
61675;SDS011;47574;52.090;5.244;2023-03-07T06:13:40;6.1;;;1.2;;
61675;SDS011;47574;52.090;5.244;2023-03-07T06:16:52;4.1;;;1.2;;
61675;SDS011;47574;52.090;5.244;2023-03-07T06:18:28;4.41;;;1.11;;
61675;SDS011;47574;52.090;5.244;2023-03-07T06:20:05;4.1;;;1.2;;
61675;SDS011;47574;52.090;5.244;2023-03-07T06:23:18;3.4;;;1.11;;
61675;SDS011;47574;52.090;5.244;2023-03-07T06:24:54;5.7;;;1.5;;
61675;SDS011;47574;52.090;5.244;2023-03-07T06:26:30;5.3;;;1.7;;
61675;SDS011;47574;52.090;5.244;2023-03-07T06:28:06;5.2;;;1.7;;
61675;SDS011;47574;52.090;5.244;2023-03-07T06:31:18;4.91;;;1.6;;
61675;SDS011;47574;52.090;5.244;2023-03-07T06:32:55;5.9;;;2.0;;
61675;SDS011;47574;52.090;5.244;2023-03-07T06:34:31;5.3;;;1.9;;
61675;SDS011;47574;52.090;5.244;2023-03-07T06:37:49;4.5;;;1.9;;
61675;SDS011;47574;52.090;5.244;2023-03-07T06:39:25;4.7;;;2.0;;
61675;SDS011;47574;52.090;5.244;2023-03-07T06:41:01;5.6;;;2.31;;
61675;SDS011;47574;52.090;5.244;2023-03-07T06:44:14;3.7;;;1.8;;
61675;SDS011;47574;52.090;5.244;2023-03-07T06:45:51;5.2;;;2.5;;
61675;SDS011;47574;52.090;5.244;2023-03-07T06:47:28;4.61;;;1.8;;
61675;SDS011;47574;52.090;5.244;2023-03-07T06:49:04;3.2;;;1.7;;
61675;SDS011;47574;52.090;5.244;2023-03-07T06:52:16;3.7;;;1.9;;
61675;SDS011;47574;52.090;5.244;2023-03-07T06:53:52;5.2;;;1.7;;
61675;SDS011;47574;52.090;5.244;2023-03-07T06:55:28;5.0;;;1.7;;
61675;SDS011;47574;52.090;5.244;2023-03-07T06:58:41;5.2;;;1.6;;
61675;SDS011;47574;52.090;5.244;2023-03-07T07:00:17;5.2;;;1.6;;
61675;SDS011;47574;52.090;5.244;2023-03-07T07:01:54;4.61;;;2.0;;
61675;SDS011;47574;52.090;5.244;2023-03-07T07:05:06;3.7;;;1.7;;
61675;SDS011;47574;52.090;5.244;2023-03-07T07:06:43;6.4;;;2.6;;
61675;SDS011;47574;52.090;5.244;2023-03-07T07:08:19;4.7;;;2.0;;
61675;SDS011;47574;52.090;5.244;2023-03-07T07:09:56;5.4;;;1.7;;
61675;SDS011;47574;52.090;5.244;2023-03-07T07:13:08;2.4;;;1.5;;
61675;SDS011;47574;52.090;5.244;2023-03-07T07:14:46;3.9;;;1.7;;
61675;SDS011;47574;52.090;5.244;2023-03-07T07:16:22;4.5;;;1.7;;
61675;SDS011;47574;52.090;5.244;2023-03-07T07:19:34;5.4;;;1.8;;
61675;SDS011;47574;52.090;5.244;2023-03-07T07:21:11;2.9;;;1.5;;
61675;SDS011;47574;52.090;5.244;2023-03-07T07:22:47;4.2;;;1.6;;
61675;SDS011;47574;52.090;5.244;2023-03-07T07:25:59;4.7;;;1.4;;
61675;SDS011;47574;52.090;5.244;2023-03-07T07:27:35;3.7;;;1.9;;
61675;SDS011;47574;52.090;5.244;2023-03-07T07:29:12;5.3;;;1.7;;
61675;SDS011;47574;52.090;5.244;2023-03-07T07:32:24;8.1;;;3.8;;
61675;SDS011;47574;52.090;5.244;2023-03-07T07:34:01;6.9;;;4.5;;
61675;SDS011;47574;52.090;5.244;2023-03-07T07:35:37;6.7;;;3.1;;
61675;SDS011;47574;52.090;5.244;2023-03-07T07:37:13;5.4;;;2.5;;
61675;SDS011;47574;52.090;5.244;2023-03-07T07:40:25;5.9;;;2.8;;
61675;SDS011;47574;52.090;5.244;2023-03-07T07:42:02;4.61;;;2.21;;
61675;SDS011;47574;52.090;5.244;2023-03-07T07:43:38;3.7;;;2.5;;
61675;SDS011;47574;52.090;5.244;2023-03-07T07:46:51;4.2;;;2.8;;
61675;SDS011;47574;52.090;5.244;2023-03-07T07:48:27;4.5;;;2.4;;
61675;SDS011;47574;52.090;5.244;2023-03-07T07:50:04;3.8;;;2.7;;
61675;SDS011;47574;52.090;5.244;2023-03-07T07:53:16;4.61;;;2.5;;
61675;SDS011;47574;52.090;5.244;2023-03-07T07:54:53;3.7;;;2.7;;
61675;SDS011;47574;52.090;5.244;2023-03-07T07:56:29;3.3;;;2.5;;
61675;SDS011;47574;52.090;5.244;2023-03-07T07:58:05;3.6;;;2.7;;
61675;SDS011;47574;52.090;5.244;2023-03-07T08:01:18;5.2;;;3.3;;
61675;SDS011;47574;52.090;5.244;2023-03-07T08:02:55;5.0;;;2.9;;
61675;SDS011;47574;52.090;5.244;2023-03-07T08:04:33;5.7;;;3.4;;
61675;SDS011;47574;52.090;5.244;2023-03-07T08:07:48;4.3;;;3.2;;
61675;SDS011;47574;52.090;5.244;2023-03-07T08:09:24;5.3;;;3.0;;
61675;SDS011;47574;52.090;5.244;2023-03-07T08:11:00;4.7;;;3.1;;
61675;SDS011;47574;52.090;5.244;2023-03-07T08:14:12;3.8;;;2.8;;
61675;SDS011;47574;52.090;5.244;2023-03-07T08:15:48;4.41;;;3.0;;
61675;SDS011;47574;52.090;5.244;2023-03-07T08:17:25;5.11;;;3.4;;
61675;SDS011;47574;52.090;5.244;2023-03-07T08:19:03;4.41;;;2.6;;
61675;SDS011;47574;52.090;5.244;2023-03-07T08:22:15;5.0;;;2.7;;
61675;SDS011;47574;52.090;5.244;2023-03-07T08:23:51;4.8;;;3.1;;
61675;SDS011;47574;52.090;5.244;2023-03-07T08:25:28;5.9;;;2.9;;
61675;SDS011;47574;52.090;5.244;2023-03-07T08:28:40;3.5;;;2.6;;
61675;SDS011;47574;52.090;5.244;2023-03-07T08:30:17;4.8;;;2.7;;
61675;SDS011;47574;52.090;5.244;2023-03-07T08:31:54;5.7;;;2.21;;
61675;SDS011;47574;52.090;5.244;2023-03-07T08:35:07;5.11;;;2.1;;
61675;SDS011;47574;52.090;5.244;2023-03-07T08:36:43;5.4;;;2.4;;
61675;SDS011;47574;52.090;5.244;2023-03-07T08:38:19;5.0;;;2.31;;
61675;SDS011;47574;52.090;5.244;2023-03-07T08:39:56;5.6;;;2.21;;
61675;SDS011;47574;52.090;5.244;2023-03-07T08:43:08;6.4;;;2.8;;
61675;SDS011;47574;52.090;5.244;2023-03-07T08:44:44;5.3;;;2.1;;
61675;SDS011;47574;52.090;5.244;2023-03-07T08:46:20;5.7;;;2.4;;
61675;SDS011;47574;52.090;5.244;2023-03-07T08:49:32;5.7;;;2.4;;
61675;SDS011;47574;52.090;5.244;2023-03-07T08:51:09;5.2;;;2.1;;
61675;SDS011;47574;52.090;5.244;2023-03-07T08:52:48;6.0;;;2.4;;
61675;SDS011;47574;52.090;5.244;2023-03-07T08:56:04;4.1;;;2.0;;
61675;SDS011;47574;52.090;5.244;2023-03-07T08:57:42;6.5;;;2.31;;
61675;SDS011;47574;52.090;5.244;2023-03-07T08:59:19;6.6;;;2.31;;
61675;SDS011;47574;52.090;5.244;2023-03-07T09:00:56;3.6;;;2.31;;
61675;SDS011;47574;52.090;5.244;2023-03-07T09:04:09;4.91;;;2.21;;
61675;SDS011;47574;52.090;5.244;2023-03-07T09:05:45;2.6;;;2.0;;
61675;SDS011;47574;52.090;5.244;2023-03-07T09:07:21;2.9;;;1.9;;
61675;SDS011;47574;52.090;5.244;2023-03-07T09:10:35;5.4;;;2.21;;
61675;SDS011;47574;52.090;5.244;2023-03-07T09:12:11;2.5;;;1.9;;
61675;SDS011;47574;52.090;5.244;2023-03-07T09:13:47;2.7;;;2.1;;
61675;SDS011;47574;52.090;5.244;2023-03-07T09:17:00;3.3;;;2.1;;
61675;SDS011;47574;52.090;5.244;2023-03-07T09:18:36;3.8;;;2.31;;
61675;SDS011;47574;52.090;5.244;2023-03-07T09:20:12;3.3;;;2.1;;
61675;SDS011;47574;52.090;5.244;2023-03-07T09:21:49;2.7;;;2.21;;
61675;SDS011;47574;52.090;5.244;2023-03-07T09:25:01;2.5;;;2.0;;
61675;SDS011;47574;52.090;5.244;2023-03-07T09:26:39;5.2;;;2.4;;
61675;SDS011;47574;52.090;5.244;2023-03-07T09:28:15;3.1;;;2.5;;
61675;SDS011;47574;52.090;5.244;2023-03-07T09:31:27;2.6;;;2.21;;
61675;SDS011;47574;52.090;5.244;2023-03-07T09:33:03;3.4;;;2.31;;
61675;SDS011;47574;52.090;5.244;2023-03-07T09:34:39;2.4;;;2.21;;
61675;SDS011;47574;52.090;5.244;2023-03-07T09:37:53;3.6;;;2.5;;
61675;SDS011;47574;52.090;5.244;2023-03-07T09:39:29;3.8;;;2.5;;
61675;SDS011;47574;52.090;5.244;2023-03-07T09:41:13;3.3;;;2.4;;
61675;SDS011;47574;52.090;5.244;2023-03-07T09:43:16;3.5;;;2.5;;
61675;SDS011;47574;52.090;5.244;2023-03-07T09:44:59;4.91;;;2.6;;
61675;SDS011;47574;52.090;5.244;2023-03-07T09:47:21;3.5;;;2.1;;
61675;SDS011;47574;52.090;5.244;2023-03-07T09:49:17;3.8;;;2.21;;
61675;SDS011;47574;52.090;5.244;2023-03-07T09:52:36;3.5;;;1.8;;
61675;SDS011;47574;52.090;5.244;2023-03-07T09:54:16;3.1;;;2.1;;
61675;SDS011;47574;52.090;5.244;2023-03-07T09:55:55;4.1;;;2.0;;
61675;SDS011;47574;52.090;5.244;2023-03-07T09:57:35;3.2;;;1.8;;
61675;SDS011;47574;52.090;5.244;2023-03-07T09:59:23;2.6;;;1.9;;
61675;SDS011;47574;52.090;5.244;2023-03-07T10:02:49;4.2;;;2.0;;
61675;SDS011;47574;52.090;5.244;2023-03-07T10:04:33;3.2;;;1.6;;
61675;SDS011;47574;52.090;5.244;2023-03-07T10:06:21;5.3;;;1.7;;
61675;SDS011;47574;52.090;5.244;2023-03-07T10:08:02;3.0;;;1.8;;
61675;SDS011;47574;52.090;5.244;2023-03-07T10:11:21;2.6;;;1.8;;
61675;SDS011;47574;52.090;5.244;2023-03-07T10:13:12;5.2;;;1.8;;
61675;SDS011;47574;52.090;5.244;2023-03-07T10:15:05;3.7;;;1.7;;
61675;SDS011;47574;52.090;5.244;2023-03-07T10:16:54;3.3;;;2.0;;
61675;SDS011;47574;52.090;5.244;2023-03-07T10:18:45;6.5;;;1.8;;
61675;SDS011;47574;52.090;5.244;2023-03-07T10:20:35;3.9;;;1.8;;
61675;SDS011;47574;52.090;5.244;2023-03-07T10:26:07;5.0;;;1.9;;
61675;SDS011;47574;52.090;5.244;2023-03-07T10:27:46;4.0;;;2.21;;
61675;SDS011;47574;52.090;5.244;2023-03-07T10:29:27;4.7;;;2.31;;
61675;SDS011;47574;52.090;5.244;2023-03-07T10:31:13;4.61;;;2.1;;
61675;SDS011;47574;52.090;5.244;2023-03-07T10:32:52;4.0;;;2.6;;
61675;SDS011;47574;52.090;5.244;2023-03-07T10:36:09;5.2;;;2.6;;
61675;SDS011;47574;52.090;5.244;2023-03-07T10:37:52;5.8;;;3.0;;
61675;SDS011;47574;52.090;5.244;2023-03-07T10:39:33;4.3;;;2.8;;
61675;SDS011;47574;52.090;5.244;2023-03-07T10:41:16;5.0;;;3.3;;
61675;SDS011;47574;52.090;5.244;2023-03-07T10:44:34;4.61;;;3.2;;
61675;SDS011;47574;52.090;5.244;2023-03-07T10:46:12;5.3;;;3.2;;
61675;SDS011;47574;52.090;5.244;2023-03-07T10:47:52;5.11;;;3.3;;
61675;SDS011;47574;52.090;5.244;2023-03-07T10:51:11;4.2;;;2.6;;
61675;SDS011;47574;52.090;5.244;2023-03-07T10:53:08;4.5;;;2.7;;
61675;SDS011;47574;52.090;5.244;2023-03-07T10:55:27;4.5;;;2.6;;
61675;SDS011;47574;52.090;5.244;2023-03-07T10:57:08;5.0;;;2.6;;
61675;SDS011;47574;52.090;5.244;2023-03-07T10:59:02;6.7;;;2.7;;
61675;SDS011;47574;52.090;5.244;2023-03-07T11:00:41;5.6;;;2.4;;
61675;SDS011;47574;52.090;5.244;2023-03-07T11:02:28;7.1;;;1.8;;
61675;SDS011;47574;52.090;5.244;2023-03-07T11:05:57;10.8;;;3.7;;
61675;SDS011;47574;52.090;5.244;2023-03-07T11:07:34;6.5;;;2.21;;
61675;SDS011;47574;52.090;5.244;2023-03-07T11:09:15;5.6;;;2.1;;
61675;SDS011;47574;52.090;5.244;2023-03-07T11:11:01;5.3;;;1.3;;
61675;SDS011;47574;52.090;5.244;2023-03-07T11:12:43;3.8;;;1.3;;
61675;SDS011;47574;52.090;5.244;2023-03-07T11:16:15;4.3;;;1.11;;
61675;SDS011;47574;52.090;5.244;2023-03-07T11:17:55;6.6;;;1.8;;
61675;SDS011;47574;52.090;5.244;2023-03-07T11:19:32;2.5;;;0.9;;
61675;SDS011;47574;52.090;5.244;2023-03-07T11:21:30;5.0;;;0.9;;
61675;SDS011;47574;52.090;5.244;2023-03-07T11:23:12;4.5;;;1.0;;
61675;SDS011;47574;52.090;5.244;2023-03-07T11:26:37;3.2;;;1.4;;
61675;SDS011;47574;52.090;5.244;2023-03-07T11:28:23;5.3;;;1.2;;
61675;SDS011;47574;52.090;5.244;2023-03-07T11:30:23;6.8;;;1.2;;
61675;SDS011;47574;52.090;5.244;2023-03-07T11:32:08;4.5;;;1.0;;
61675;SDS011;47574;52.090;5.244;2023-03-07T11:33:50;5.5;;;1.4;;
61675;SDS011;47574;52.090;5.244;2023-03-07T11:38:17;6.2;;;1.6;;
61675;SDS011;47574;52.090;5.244;2023-03-07T11:40:10;5.11;;;1.3;;
61675;SDS011;47574;52.090;5.244;2023-03-07T11:41:58;6.2;;;1.3;;
61675;SDS011;47574;52.090;5.244;2023-03-07T11:45:34;4.7;;;1.2;;
61675;SDS011;47574;52.090;5.244;2023-03-07T11:47:25;5.4;;;1.4;;
61675;SDS011;47574;52.090;5.244;2023-03-07T11:49:15;3.3;;;1.11;;
61675;SDS011;47574;52.090;5.244;2023-03-07T11:51:05;4.61;;;1.4;;
61675;SDS011;47574;52.090;5.244;2023-03-07T11:53:54;4.7;;;2.5;;
61675;SDS011;47574;52.090;5.244;2023-03-07T11:55:56;7.3;;;2.4;;
61675;SDS011;47574;52.090;5.244;2023-03-07T11:57:51;4.7;;;1.4;;
61675;SDS011;47574;52.090;5.244;2023-03-07T12:00:19;5.8;;;1.6;;
61675;SDS011;47574;52.090;5.244;2023-03-07T12:02:05;5.8;;;1.3;;
61675;SDS011;47574;52.090;5.244;2023-03-07T12:07:46;4.91;;;1.5;;
61675;SDS011;47574;52.090;5.244;2023-03-07T12:09:40;5.4;;;1.6;;
61675;SDS011;47574;52.090;5.244;2023-03-07T12:11:28;5.0;;;1.5;;
61675;SDS011;47574;52.090;5.244;2023-03-07T12:13:24;2.31;;;1.3;;
61675;SDS011;47574;52.090;5.244;2023-03-07T12:17:17;2.31;;;1.0;;
61675;SDS011;47574;52.090;5.244;2023-03-07T12:19:11;2.0;;;0.6;;
61675;SDS011;47574;52.090;5.244;2023-03-07T12:21:33;5.2;;;0.7;;
61675;SDS011;47574;52.090;5.244;2023-03-07T12:23:31;2.8;;;0.7;;
61675;SDS011;47574;52.090;5.244;2023-03-07T12:25:17;3.1;;;0.7;;
61675;SDS011;47574;52.090;5.244;2023-03-07T12:26:58;3.9;;;0.9;;
61675;SDS011;47574;52.090;5.244;2023-03-07T12:28:40;4.1;;;1.6;;
61675;SDS011;47574;52.090;5.244;2023-03-07T12:30:21;5.2;;;1.9;;
61675;SDS011;47574;52.090;5.244;2023-03-07T12:33:49;5.6;;;2.0;;
61675;SDS011;47574;52.090;5.244;2023-03-07T12:35:35;4.91;;;1.8;;
61675;SDS011;47574;52.090;5.244;2023-03-07T12:37:19;5.8;;;2.0;;
61675;SDS011;47574;52.090;5.244;2023-03-07T12:39:02;5.4;;;1.4;;
61675;SDS011;47574;52.090;5.244;2023-03-07T12:40:50;4.61;;;1.3;;
61675;SDS011;47574;52.090;5.244;2023-03-07T12:44:19;6.3;;;2.31;;
61675;SDS011;47574;52.090;5.244;2023-03-07T12:46:11;10.4;;;2.7;;
61675;SDS011;47574;52.090;5.244;2023-03-07T12:47:55;3.9;;;1.11;;
61675;SDS011;47574;52.090;5.244;2023-03-07T12:49:40;3.6;;;1.0;;
61675;SDS011;47574;52.090;5.244;2023-03-07T12:51:25;2.21;;;0.8;;
61675;SDS011;47574;52.090;5.244;2023-03-07T12:53:09;3.7;;;1.3;;
61675;SDS011;47574;52.090;5.244;2023-03-07T12:56:39;5.5;;;1.3;;
61675;SDS011;47574;52.090;5.244;2023-03-07T12:58:28;3.4;;;1.11;;
61675;SDS011;47574;52.090;5.244;2023-03-07T13:00:12;4.61;;;1.2;;
61675;SDS011;47574;52.090;5.244;2023-03-07T13:01:59;5.5;;;1.3;;
61675;SDS011;47574;52.090;5.244;2023-03-07T13:03:43;5.11;;;1.3;;
61675;SDS011;47574;52.090;5.244;2023-03-07T13:07:06;2.8;;;0.8;;
61675;SDS011;47574;52.090;5.244;2023-03-07T13:08:46;3.8;;;1.0;;
61675;SDS011;47574;52.090;5.244;2023-03-07T13:10:24;2.9;;;1.11;;